createdAt,value
2023-05-03T00:04:25.328Z,100.00
2023-05-03T00:09:17.048Z,100.00
2023-05-03T00:14:08.764Z,100.00
2023-05-03T00:19:00.494Z,100.00
2023-05-03T00:23:52.202Z,100.00
2023-05-03T00:28:43.884Z,100.00
2023-05-03T00:33:37.311Z,100.00
2023-05-03T00:38:28.981Z,100.00
2023-05-03T00:43:20.654Z,100.00
2023-05-03T00:48:13.068Z,100.00
2023-05-03T00:53:04.995Z,100.00
2023-05-03T00:57:57.498Z,100.00
2023-05-03T01:02:49.423Z,100.00
2023-05-03T01:08:11.377Z,100.00
2023-05-03T01:13:45.012Z,100.00
2023-05-03T01:18:44.021Z,100.00
2023-05-03T01:24:03.691Z,100.00
2023-05-03T01:28:56.070Z,100.00
2023-05-03T01:34:02.708Z,100.00
2023-05-03T01:38:54.743Z,100.00
2023-05-03T01:43:47.326Z,100.00
2023-05-03T01:48:38.987Z,100.00
2023-05-03T01:53:30.650Z,100.00
2023-05-03T01:58:22.380Z,100.00
2023-05-03T02:03:14.099Z,100.00
2023-05-03T02:08:05.786Z,100.00
2023-05-03T02:12:57.618Z,100.00
2023-05-03T02:17:49.801Z,100.00
2023-05-03T02:22:42.315Z,100.00
2023-05-03T02:27:34.028Z,100.00
2023-05-03T02:32:26.039Z,100.00
2023-05-03T02:37:17.755Z,100.00
2023-05-03T02:42:09.489Z,100.00
2023-05-03T02:47:01.402Z,100.00
2023-05-03T02:51:53.289Z,100.00
2023-05-03T02:56:44.963Z,100.00
2023-05-03T03:01:36.745Z,100.00
2023-05-03T03:06:28.476Z,100.00
2023-05-03T03:11:20.203Z,100.00
2023-05-03T03:16:12.044Z,100.00
2023-05-03T03:21:04.300Z,100.00
2023-05-03T03:25:56.050Z,100.00
2023-05-03T03:30:48.052Z,100.00
2023-05-03T03:35:39.896Z,100.00
2023-05-03T03:40:31.723Z,100.00
2023-05-03T03:45:23.530Z,100.00
2023-05-03T03:50:15.583Z,100.00
2023-05-03T03:55:07.611Z,100.00
2023-05-03T03:59:59.590Z,100.00
2023-05-03T04:04:51.437Z,100.00
2023-05-03T04:09:43.393Z,100.00
2023-05-03T04:14:35.172Z,100.00
2023-05-03T04:19:26.835Z,100.00
2023-05-03T04:24:18.574Z,100.00
2023-05-03T04:29:12.004Z,100.00
2023-05-03T04:34:03.763Z,100.00
2023-05-03T04:38:56.202Z,100.00
2023-05-03T04:48:54.444Z,100.00
2023-05-03T04:53:46.876Z,100.00
2023-05-03T04:58:41.035Z,100.00
2023-05-03T05:08:39.333Z,100.00
2023-05-03T05:13:31.574Z,100.00
2023-05-03T05:23:29.373Z,100.00
2023-05-03T05:28:22.435Z,100.00
2023-05-03T05:38:28.103Z,85.20
2023-05-03T05:43:19.880Z,77.47
2023-05-03T05:48:12.203Z,74.98
2023-05-03T05:53:06.574Z,76.81
2023-05-03T05:58:00.193Z,72.44
2023-05-03T06:02:52.577Z,72.23
2023-05-03T06:07:56.814Z,71.42
2023-05-03T06:12:53.772Z,72.47
2023-05-03T06:22:52.309Z,76.62
2023-05-03T06:32:52.900Z,80.20
2023-05-03T06:42:50.530Z,87.95
2023-05-03T06:47:42.700Z,88.81
2023-05-03T06:52:35.187Z,90.00
2023-05-03T06:57:28.800Z,89.07
2023-05-03T07:02:42.772Z,86.65
2023-05-03T07:07:35.251Z,88.67
2023-05-03T07:12:28.615Z,85.98
2023-05-03T07:17:23.080Z,85.61
2023-05-03T07:22:15.706Z,83.64
2023-05-03T07:27:11.996Z,84.26
2023-05-03T07:32:07.825Z,81.23
2023-05-03T10:11:54.701Z,73.78
2023-05-03T10:54:38.303Z,68.63
2023-05-03T13:48:18.288Z,63.00
2023-05-03T16:19:18.924Z,54.42
2023-05-03T16:49:47.006Z,56.32
2023-05-03T17:15:14.799Z,58.99
2023-05-03T17:20:07.669Z,58.98
2023-05-03T17:24:59.463Z,58.59
2023-05-03T17:45:29.520Z,60.08
2023-05-03T17:50:21.251Z,60.15
2023-05-03T18:15:48.432Z,61.75
2023-05-03T18:20:46.597Z,61.98
2023-05-03T18:35:55.559Z,62.85
2023-05-03T18:56:12.134Z,64.32
2023-05-03T19:47:42.826Z,68.53
2023-05-03T19:52:36.681Z,68.95
2023-05-03T19:57:30.652Z,69.48
2023-05-03T20:02:24.982Z,69.33
2023-05-03T20:12:23.150Z,69.90
2023-05-03T20:17:26.985Z,69.68
2023-05-03T20:22:19.630Z,69.70
2023-05-03T20:27:15.895Z,70.31
2023-05-03T20:32:09.618Z,71.13
2023-05-03T20:42:11.933Z,72.35
2023-05-03T20:52:14.127Z,72.84
2023-05-03T20:57:12.511Z,73.19
2023-05-03T21:07:12.311Z,74.19
2023-05-03T21:53:02.786Z,80.03
2023-05-03T23:19:34.526Z,97.24
2023-05-03T23:34:40.813Z,100.00
2023-05-03T23:44:53.804Z,100.00
2023-05-03T23:49:47.260Z,100.00
2023-05-03T23:54:38.945Z,100.00
